sensor_id;sensor_type;location;lat;lon;timestamp;pressure;altitude;pressure_sealevel;temperature
40624;BMP280;26325;48.594;11.650;2023-05-15T00:00:55;96137.53;;;12.78
40624;BMP280;26325;48.594;11.650;2023-05-15T00:03:21;96137.53;;;12.78
40624;BMP280;26325;48.594;11.650;2023-05-15T00:05:46;96137.53;;;12.73
40624;BMP280;26325;48.594;11.650;2023-05-15T00:08:14;96134.69;;;12.75
40624;BMP280;26325;48.594;11.650;2023-05-15T00:10:40;96139.63;;;12.66
40624;BMP280;26325;48.594;11.650;2023-05-15T00:13:08;96138.59;;;12.62
40624;BMP280;26325;48.594;11.650;2023-05-15T00:15:35;96125.41;;;12.54
40624;BMP280;26325;48.594;11.650;2023-05-15T00:18:01;96132.38;;;12.49
40624;BMP280;26325;48.594;11.650;2023-05-15T00:20:26;96127.97;;;12.49
40624;BMP280;26325;48.594;11.650;2023-05-15T00:22:52;96121.00;;;12.40
40624;BMP280;26325;48.594;11.650;2023-05-15T00:25:20;96114.78;;;12.41
40624;BMP280;26325;48.594;11.650;2023-05-15T00:27:45;96127.75;;;12.36
40624;BMP280;26325;48.594;11.650;2023-05-15T00:30:12;96119.19;;;12.31
40624;BMP280;26325;48.594;11.650;2023-05-15T00:32:39;96119.72;;;12.28
40624;BMP280;26325;48.594;11.650;2023-05-15T00:37:32;96122.56;;;12.17
40624;BMP280;26325;48.594;11.650;2023-05-15T00:39:58;96124.41;;;12.11
40624;BMP280;26325;48.594;11.650;2023-05-15T00:42:23;96120.00;;;12.07
40624;BMP280;26325;48.594;11.650;2023-05-15T00:44:54;96117.94;;;12.04
40624;BMP280;26325;48.594;11.650;2023-05-15T00:47:21;96116.88;;;12.10
40624;BMP280;26325;48.594;11.650;2023-05-15T00:49:48;96114.31;;;12.00
40624;BMP280;26325;48.594;11.650;2023-05-15T00:52:14;96109.13;;;11.76
40624;BMP280;26325;48.594;11.650;2023-05-15T00:54:39;96110.91;;;11.61
40624;BMP280;26325;48.594;11.650;2023-05-15T00:57:07;96115.31;;;11.60
40624;BMP280;26325;48.594;11.650;2023-05-15T00:59:33;96109.09;;;11.56
40624;BMP280;26325;48.594;11.650;2023-05-15T01:01:59;96103.88;;;11.46
40624;BMP280;26325;48.594;11.650;2023-05-15T01:04:24;96112.16;;;11.39
40624;BMP280;26325;48.594;11.650;2023-05-15T01:06:50;96110.59;;;11.33
40624;BMP280;26325;48.594;11.650;2023-05-15T01:09:19;96106.91;;;11.29
40624;BMP280;26325;48.594;11.650;2023-05-15T01:11:46;96104.34;;;11.24
40624;BMP280;26325;48.594;11.650;2023-05-15T01:14:17;96111.56;;;11.17
40624;BMP280;26325;48.594;11.650;2023-05-15T01:16:42;96104.78;;;11.06
40624;BMP280;26325;48.594;11.650;2023-05-15T01:19:08;96100.06;;;10.89
40624;BMP280;26325;48.594;11.650;2023-05-15T01:30:21;96096.22;;;10.96
40624;BMP280;26325;48.594;11.650;2023-05-15T01:36:17;96091.59;;;11.03
40624;BMP280;26325;48.594;11.650;2023-05-15T01:38:52;96100.13;;;10.99
40624;BMP280;26325;48.594;11.650;2023-05-15T01:41:23;96098.84;;;11.06
40624;BMP280;26325;48.594;11.650;2023-05-15T01:44:20;96102.75;;;11.08
40624;BMP280;26325;48.594;11.650;2023-05-15T01:46:50;96102.44;;;11.05
40624;BMP280;26325;48.594;11.650;2023-05-15T01:49:18;96111.00;;;11.10
40624;BMP280;26325;48.594;11.650;2023-05-15T01:51:55;96118.25;;;11.13
40624;BMP280;26325;48.594;11.650;2023-05-15T01:54:22;96111.81;;;11.21
40624;BMP280;26325;48.594;11.650;2023-05-15T01:56:48;96119.31;;;11.22
40624;BMP280;26325;48.594;11.650;2023-05-15T01:59:13;96120.34;;;11.21
40624;BMP280;26325;48.594;11.650;2023-05-15T02:01:40;96110.53;;;11.28
40624;BMP280;26325;48.594;11.650;2023-05-15T02:04:07;96118.84;;;11.30
40624;BMP280;26325;48.594;11.650;2023-05-15T02:06:36;96117.25;;;11.29
40624;BMP280;26325;48.594;11.650;2023-05-15T02:09:03;96116.25;;;11.30
40624;BMP280;26325;48.594;11.650;2023-05-15T02:11:28;96111.63;;;11.32
40624;BMP280;26325;48.594;11.650;2023-05-15T02:13:55;96107.50;;;11.41
40624;BMP280;26325;48.594;11.650;2023-05-15T02:16:21;96115.78;;;11.43
40624;BMP280;26325;48.594;11.650;2023-05-15T02:18:49;96113.22;;;11.43
40624;BMP280;26325;48.594;11.650;2023-05-15T02:21:19;96109.06;;;11.46
40624;BMP280;26325;48.594;11.650;2023-05-15T02:23:47;96109.59;;;11.48
40624;BMP280;26325;48.594;11.650;2023-05-15T02:26:46;96111.41;;;11.58
40624;BMP280;26325;48.594;11.650;2023-05-15T02:37:55;96108.81;;;11.62
40624;BMP280;26325;48.594;11.650;2023-05-15T02:40:27;96104.97;;;11.65
40624;BMP280;26325;48.594;11.650;2023-05-15T02:45:19;96092.53;;;11.62
40624;BMP280;26325;48.594;11.650;2023-05-15T02:47:45;96089.44;;;11.65
40624;BMP280;26325;48.594;11.650;2023-05-15T02:50:13;96091.28;;;11.69
40624;BMP280;26325;48.594;11.650;2023-05-15T02:52:38;96094.63;;;11.75
40624;BMP280;26325;48.594;11.650;2023-05-15T02:55:05;96096.16;;;11.71
40624;BMP280;26325;48.594;11.650;2023-05-15T02:57:31;96091.53;;;11.68
40624;BMP280;26325;48.594;11.650;2023-05-15T02:59:56;96087.38;;;11.67
40624;BMP280;26325;48.594;11.650;2023-05-15T03:02:22;96089.97;;;11.67
40624;BMP280;26325;48.594;11.650;2023-05-15T03:04:47;96096.69;;;11.68
40624;BMP280;26325;48.594;11.650;2023-05-15T03:07:13;96092.03;;;11.75
40624;BMP280;26325;48.594;11.650;2023-05-15T03:09:39;96088.16;;;11.72
40624;BMP280;26325;48.594;11.650;2023-05-15T03:12:06;96086.63;;;11.76
40624;BMP280;26325;48.594;11.650;2023-05-15T03:14:34;96089.97;;;11.77
40624;BMP280;26325;48.594;11.650;2023-05-15T03:17:00;96089.44;;;11.80
40624;BMP280;26325;48.594;11.650;2023-05-15T03:19:28;96086.88;;;11.75
40624;BMP280;26325;48.594;11.650;2023-05-15T03:21:53;96088.69;;;11.69
40624;BMP280;26325;48.594;11.650;2023-05-15T03:24:19;96085.03;;;11.65
40624;BMP280;26325;48.594;11.650;2023-05-15T03:26:45;96089.97;;;11.67
40624;BMP280;26325;48.594;11.650;2023-05-15T03:29:11;96087.91;;;11.69
40624;BMP280;26325;48.594;11.650;2023-05-15T03:31:39;96082.75;;;11.69
40624;BMP280;26325;48.594;11.650;2023-05-15T03:34:05;96086.84;;;11.65
40624;BMP280;26325;48.594;11.650;2023-05-15T03:36:31;96084.78;;;11.67
40624;BMP280;26325;48.594;11.650;2023-05-15T03:38:56;96090.72;;;11.62
40624;BMP280;26325;48.594;11.650;2023-05-15T03:41:22;96088.41;;;11.66
40624;BMP280;26325;48.594;11.650;2023-05-15T03:43:50;96088.41;;;11.66
40624;BMP280;26325;48.594;11.650;2023-05-15T03:46:15;96087.91;;;11.59
40624;BMP280;26325;48.594;11.650;2023-05-15T03:48:41;96095.66;;;11.64
40624;BMP280;26325;48.594;11.650;2023-05-15T03:51:06;96098.75;;;11.66
40624;BMP280;26325;48.594;11.650;2023-05-15T03:53:32;96096.16;;;11.71
40624;BMP280;26325;48.594;11.650;2023-05-15T03:55:57;96093.84;;;11.69
40624;BMP280;26325;48.594;11.650;2023-05-15T03:58:23;96094.63;;;11.70
40624;BMP280;26325;48.594;11.650;2023-05-15T04:00:48;96090.47;;;11.64
40624;BMP280;26325;48.594;11.650;2023-05-15T04:03:16;96087.66;;;11.61
40624;BMP280;26325;48.594;11.650;2023-05-15T04:05:43;96096.69;;;11.68
40624;BMP280;26325;48.594;11.650;2023-05-15T04:08:08;96094.09;;;11.68
40624;BMP280;26325;48.594;11.650;2023-05-15T04:10:35;96102.38;;;11.75
40624;BMP280;26325;48.594;11.650;2023-05-15T04:13:00;96095.94;;;11.77
40624;BMP280;26325;48.594;11.650;2023-05-15T04:15:26;96097.22;;;11.75
40624;BMP280;26325;48.594;11.650;2023-05-15T04:17:53;96099.28;;;11.78
40624;BMP280;26325;48.594;11.650;2023-05-15T04:20:23;96102.94;;;11.86
40624;BMP280;26325;48.594;11.650;2023-05-15T04:22:49;96094.13;;;11.82
40624;BMP280;26325;48.594;11.650;2023-05-15T04:25:15;96102.94;;;11.86
40624;BMP280;26325;48.594;11.650;2023-05-15T04:27:42;96097.22;;;11.84
40624;BMP280;26325;48.594;11.650;2023-05-15T04:30:09;96094.88;;;11.83
40624;BMP280;26325;48.594;11.650;2023-05-15T04:32:38;96088.69;;;11.84
40624;BMP280;26325;48.594;11.650;2023-05-15T04:35:05;96096.19;;;11.90
40624;BMP280;26325;48.594;11.650;2023-05-15T04:37:39;96091.25;;;11.89
40624;BMP280;26325;48.594;11.650;2023-05-15T04:40:06;96092.28;;;11.88
40624;BMP280;26325;48.594;11.650;2023-05-15T04:42:36;96094.09;;;11.87
40624;BMP280;26325;48.594;11.650;2023-05-15T04:45:02;96105.00;;;11.84
40624;BMP280;26325;48.594;11.650;2023-05-15T04:47:28;96101.09;;;11.82
40624;BMP280;26325;48.594;11.650;2023-05-15T04:49:53;96103.41;;;11.88
40624;BMP280;26325;48.594;11.650;2023-05-15T04:52:21;96101.88;;;11.97
40624;BMP280;26325;48.594;11.650;2023-05-15T04:54:47;96102.41;;;11.94
40624;BMP280;26325;48.594;11.650;2023-05-15T04:57:16;96104.72;;;12.00
40624;BMP280;26325;48.594;11.650;2023-05-15T04:59:41;96103.44;;;12.03
40624;BMP280;26325;48.594;11.650;2023-05-15T05:02:08;96107.59;;;12.04
40624;BMP280;26325;48.594;11.650;2023-05-15T05:04:34;96105.50;;;12.11
40624;BMP280;26325;48.594;11.650;2023-05-15T05:06:59;96102.66;;;12.12
40624;BMP280;26325;48.594;11.650;2023-05-15T05:09:25;96096.69;;;12.17
40624;BMP280;26325;48.594;11.650;2023-05-15T05:11:50;96107.56;;;12.14
40624;BMP280;26325;48.594;11.650;2023-05-15T05:14:16;96110.66;;;12.16
40624;BMP280;26325;48.594;11.650;2023-05-15T05:16:44;96116.38;;;12.18
40624;BMP280;26325;48.594;11.650;2023-05-15T05:19:12;96122.56;;;12.17
40624;BMP280;26325;48.594;11.650;2023-05-15T05:21:38;96120.50;;;12.18
40624;BMP280;26325;48.594;11.650;2023-05-15T05:24:03;96119.47;;;12.24
40624;BMP280;26325;48.594;11.650;2023-05-15T05:26:29;96117.41;;;12.21
40624;BMP280;26325;48.594;11.650;2023-05-15T05:28:54;96122.56;;;12.26
40624;BMP280;26325;48.594;11.650;2023-05-15T05:31:20;96114.06;;;12.11
40624;BMP280;26325;48.594;11.650;2023-05-15T05:33:46;96115.06;;;12.15
40624;BMP280;26325;48.594;11.650;2023-05-15T05:36:14;96124.63;;;12.05
40624;BMP280;26325;48.594;11.650;2023-05-15T05:38:40;96120.78;;;12.17
40624;BMP280;26325;48.594;11.650;2023-05-15T05:41:06;96116.38;;;12.13
40624;BMP280;26325;48.594;11.650;2023-05-15T05:43:31;96122.06;;;12.10
40624;BMP280;26325;48.594;11.650;2023-05-15T05:46:01;96124.91;;;12.13
40624;BMP280;26325;48.594;11.650;2023-05-15T05:48:27;96122.06;;;12.15
40624;BMP280;26325;48.594;11.650;2023-05-15T05:50:53;96123.09;;;12.18
40624;BMP280;26325;48.594;11.650;2023-05-15T05:53:19;96127.78;;;12.12
40624;BMP280;26325;48.594;11.650;2023-05-15T05:55:44;96125.16;;;12.31
40624;BMP280;26325;48.594;11.650;2023-05-15T05:58:10;96128.81;;;12.20
40624;BMP280;26325;48.594;11.650;2023-05-15T06:00:36;96117.66;;;12.20
40624;BMP280;26325;48.594;11.650;2023-05-15T06:03:01;96123.63;;;12.20
40624;BMP280;26325;48.594;11.650;2023-05-15T06:05:29;96112.50;;;12.30
40624;BMP280;26325;48.594;11.650;2023-05-15T06:07:57;96125.94;;;12.37
40624;BMP280;26325;48.594;11.650;2023-05-15T06:10:24;96126.44;;;12.43
40624;BMP280;26325;48.594;11.650;2023-05-15T06:12:49;96120.44;;;12.57
40624;BMP280;26325;48.594;11.650;2023-05-15T06:15:15;96118.13;;;12.51
40624;BMP280;26325;48.594;11.650;2023-05-15T06:17:41;96116.31;;;12.52
40624;BMP280;26325;48.594;11.650;2023-05-15T06:20:07;96125.66;;;12.43
40624;BMP280;26325;48.594;11.650;2023-05-15T06:22:35;96123.06;;;12.48
40624;BMP280;26325;48.594;11.650;2023-05-15T06:25:05;96120.47;;;12.67
40624;BMP280;26325;48.594;11.650;2023-05-15T06:27:34;96123.03;;;12.62
40624;BMP280;26325;48.594;11.650;2023-05-15T06:30:00;96118.13;;;12.71
40624;BMP280;26325;48.594;11.650;2023-05-15T06:32:29;96124.00;;;12.91
40624;BMP280;26325;48.594;11.650;2023-05-15T06:34:55;96126.09;;;12.94
40624;BMP280;26325;48.594;11.650;2023-05-15T06:37:22;96122.97;;;12.96
40624;BMP280;26325;48.594;11.650;2023-05-15T06:39:48;96135.31;;;13.24
40624;BMP280;26325;48.594;11.650;2023-05-15T06:42:16;96132.53;;;13.01
40624;BMP280;26325;48.594;11.650;2023-05-15T06:44:45;96142.09;;;13.10
40624;BMP280;26325;48.594;11.650;2023-05-15T06:47:12;96131.72;;;13.15
40624;BMP280;26325;48.594;11.650;2023-05-15T06:49:37;96136.84;;;13.30
40624;BMP280;26325;48.594;11.650;2023-05-15T06:52:03;96129.06;;;13.25
40624;BMP280;26325;48.594;11.650;2023-05-15T06:54:29;96133.13;;;13.50
40624;BMP280;26325;48.594;11.650;2023-05-15T06:56:54;96129.75;;;13.45
40624;BMP280;26325;48.594;11.650;2023-05-15T06:59:20;96137.50;;;13.54
40624;BMP280;26325;48.594;11.650;2023-05-15T07:01:45;96134.16;;;13.44
40624;BMP280;26325;48.594;11.650;2023-05-15T07:04:11;96133.03;;;13.60
40624;BMP280;26325;48.594;11.650;2023-05-15T07:06:36;96132.94;;;13.79
40624;BMP280;26325;48.594;11.650;2023-05-15T07:09:02;96131.88;;;13.85
40624;BMP280;26325;48.594;11.650;2023-05-15T07:11:31;96137.56;;;13.92
40624;BMP280;26325;48.594;11.650;2023-05-15T07:13:57;96131.78;;;14.00
40624;BMP280;26325;48.594;11.650;2023-05-15T07:16:23;96130.31;;;14.22
40624;BMP280;26325;48.594;11.650;2023-05-15T07:18:48;96136.03;;;14.51
40624;BMP280;26325;48.594;11.650;2023-05-15T07:21:15;96126.69;;;14.73
40624;BMP280;26325;48.594;11.650;2023-05-15T07:23:43;96131.34;;;15.04
40624;BMP280;26325;48.594;11.650;2023-05-15T07:26:08;96131.53;;;15.71
40624;BMP280;26325;48.594;11.650;2023-05-15T07:28:34;96126.72;;;15.96
40624;BMP280;26325;48.594;11.650;2023-05-15T07:31:01;96126.06;;;16.40
40624;BMP280;26325;48.594;11.650;2023-05-15T07:33:26;96130.50;;;16.39
40624;BMP280;26325;48.594;11.650;2023-05-15T07:35:52;96134.88;;;16.26
40624;BMP280;26325;48.594;11.650;2023-05-15T07:38:17;96129.84;;;16.16
40624;BMP280;26325;48.594;11.650;2023-05-15T07:40:44;96135.47;;;15.87
40624;BMP280;26325;48.594;11.650;2023-05-15T07:43:09;96128.44;;;16.68
40624;BMP280;26325;48.594;11.650;2023-05-15T07:45:35;96118.53;;;17.22
40624;BMP280;26325;48.594;11.650;2023-05-15T07:48:17;96119.41;;;17.31
40624;BMP280;26325;48.594;11.650;2023-05-15T07:50:44;96128.22;;;17.22
40624;BMP280;26325;48.594;11.650;2023-05-15T07:53:15;96119.22;;;17.41
40624;BMP280;26325;48.594;11.650;2023-05-15T07:55:44;96125.81;;;17.73
40624;BMP280;26325;48.594;11.650;2023-05-15T07:58:10;96121.09;;;17.75
40624;BMP280;26325;48.594;11.650;2023-05-15T08:00:36;96116.34;;;17.64
40624;BMP280;26325;48.594;11.650;2023-05-15T08:03:02;96120.38;;;17.35
40624;BMP280;26325;48.594;11.650;2023-05-15T08:05:28;96127.34;;;17.00
40624;BMP280;26325;48.594;11.650;2023-05-15T08:07:55;96124.16;;;17.03
40624;BMP280;26325;48.594;11.650;2023-05-15T08:10:23;96115.69;;;17.58
40624;BMP280;26325;48.594;11.650;2023-05-15T08:12:49;96115.38;;;18.08
40624;BMP280;26325;48.594;11.650;2023-05-15T08:15:15;96112.66;;;18.55
40624;BMP280;26325;48.594;11.650;2023-05-15T08:17:41;96107.69;;;18.75
40624;BMP280;26325;48.594;11.650;2023-05-15T08:20:08;96115.56;;;19.13
40624;BMP280;26325;48.594;11.650;2023-05-15T08:22:38;96107.13;;;19.87
40624;BMP280;26325;48.594;11.650;2023-05-15T08:25:04;96103.06;;;20.73
40624;BMP280;26325;48.594;11.650;2023-05-15T08:27:31;96111.00;;;20.93
40624;BMP280;26325;48.594;11.650;2023-05-15T08:29:57;96112.84;;;21.00
40624;BMP280;26325;48.594;11.650;2023-05-15T08:32:22;96105.50;;;21.51
40624;BMP280;26325;48.594;11.650;2023-05-15T08:34:48;96109.22;;;21.78
40624;BMP280;26325;48.594;11.650;2023-05-15T08:37:14;96111.28;;;22.13
40624;BMP280;26325;48.594;11.650;2023-05-15T08:39:39;96102.91;;;22.51
40624;BMP280;26325;48.594;11.650;2023-05-15T08:42:32;96102.91;;;22.51
40624;BMP280;26325;48.594;11.650;2023-05-15T08:44:59;96104.63;;;21.95
40624;BMP280;26325;48.594;11.650;2023-05-15T08:47:31;96108.19;;;21.06
40624;BMP280;26325;48.594;11.650;2023-05-15T08:50:15;96113.47;;;20.11
40624;BMP280;26325;48.594;11.650;2023-05-15T08:52:46;96114.94;;;19.63
40624;BMP280;26325;48.594;11.650;2023-05-15T08:55:17;96115.38;;;19.10
40624;BMP280;26325;48.594;11.650;2023-05-15T08:57:43;96112.69;;;18.85
40624;BMP280;26325;48.594;11.650;2023-05-15T09:00:10;96106.59;;;18.98
40624;BMP280;26325;48.594;11.650;2023-05-15T09:02:40;96096.97;;;19.23
40624;BMP280;26325;48.594;11.650;2023-05-15T09:05:07;96099.72;;;20.39
40624;BMP280;26325;48.594;11.650;2023-05-15T09:07:37;96089.63;;;21.19
40624;BMP280;26325;48.594;11.650;2023-05-15T09:10:07;96085.03;;;22.76
40624;BMP280;26325;48.594;11.650;2023-05-15T09:12:35;96072.78;;;23.62
40624;BMP280;26325;48.594;11.650;2023-05-15T09:15:17;96089.25;;;23.12
40624;BMP280;26325;48.594;11.650;2023-05-15T09:17:44;96089.56;;;22.04
40624;BMP280;26325;48.594;11.650;2023-05-15T09:20:30;96086.38;;;21.70
40624;BMP280;26325;48.594;11.650;2023-05-15T09:22:58;96083.13;;;22.33
40624;BMP280;26325;48.594;11.650;2023-05-15T09:28:31;96075.22;;;23.43
40624;BMP280;26325;48.594;11.650;2023-05-15T09:31:02;96088.47;;;24.32
40624;BMP280;26325;48.594;11.650;2023-05-15T09:33:37;96087.28;;;25.28
40624;BMP280;26325;48.594;11.650;2023-05-15T09:36:05;96091.03;;;25.27
40624;BMP280;26325;48.594;11.650;2023-05-15T09:38:32;96083.81;;;24.83
40624;BMP280;26325;48.594;11.650;2023-05-15T09:41:06;96076.31;;;25.60
40624;BMP280;26325;48.594;11.650;2023-05-15T09:43:39;96081.28;;;25.31
40624;BMP280;26325;48.594;11.650;2023-05-15T09:48:44;96063.25;;;26.37
40624;BMP280;26325;48.594;11.650;2023-05-15T09:51:18;96056.53;;;26.80
40624;BMP280;26325;48.594;11.650;2023-05-15T09:53:53;96062.28;;;26.27
40624;BMP280;26325;48.594;11.650;2023-05-15T09:56:19;96056.81;;;25.83
40624;BMP280;26325;48.594;11.650;2023-05-15T09:58:57;96071.50;;;26.51
40624;BMP280;26325;48.594;11.650;2023-05-15T10:01:24;96065.22;;;27.03
40624;BMP280;26325;48.594;11.650;2023-05-15T10:04:02;96063.56;;;28.15
40624;BMP280;26325;48.594;11.650;2023-05-15T10:06:46;96059.13;;;29.29
40624;BMP280;26325;48.594;11.650;2023-05-15T10:09:13;96067.19;;;27.75
40624;BMP280;26325;48.594;11.650;2023-05-15T10:11:51;96058.28;;;26.95
40624;BMP280;26325;48.594;11.650;2023-05-15T10:14:18;96059.94;;;26.22
40624;BMP280;26325;48.594;11.650;2023-05-15T10:16:46;96057.94;;;26.75
40624;BMP280;26325;48.594;11.650;2023-05-15T10:19:12;96052.28;;;28.21
40624;BMP280;26325;48.594;11.650;2023-05-15T10:21:40;96035.03;;;29.58
40624;BMP280;26325;48.594;11.650;2023-05-15T10:24:07;96044.69;;;29.86
40624;BMP280;26325;48.594;11.650;2023-05-15T10:29:15;96040.47;;;28.83
40624;BMP280;26325;48.594;11.650;2023-05-15T10:31:44;96041.00;;;29.97
40624;BMP280;26325;48.594;11.650;2023-05-15T10:34:13;96023.34;;;30.42
40624;BMP280;26325;48.594;11.650;2023-05-15T10:36:40;96025.47;;;30.13
40624;BMP280;26325;48.594;11.650;2023-05-15T10:39:09;96024.63;;;29.36
40624;BMP280;26325;48.594;11.650;2023-05-15T10:41:38;96030.59;;;28.16
40624;BMP280;26325;48.594;11.650;2023-05-15T10:44:04;96033.50;;;27.06
40624;BMP280;26325;48.594;11.650;2023-05-15T10:46:34;96029.00;;;26.26
40624;BMP280;26325;48.594;11.650;2023-05-15T10:49:03;96020.91;;;26.37
40624;BMP280;26325;48.594;11.650;2023-05-15T10:51:31;96006.06;;;26.52
40624;BMP280;26325;48.594;11.650;2023-05-15T10:54:01;96004.28;;;26.00
40624;BMP280;26325;48.594;11.650;2023-05-15T10:56:39;96006.03;;;24.95
40624;BMP280;26325;48.594;11.650;2023-05-15T10:59:09;96005.47;;;26.21
40624;BMP280;26325;48.594;11.650;2023-05-15T11:01:41;96007.16;;;25.92
40624;BMP280;26325;48.594;11.650;2023-05-15T11:04:16;96016.59;;;24.95
40624;BMP280;26325;48.594;11.650;2023-05-15T11:06:49;96018.78;;;23.94
40624;BMP280;26325;48.594;11.650;2023-05-15T11:11:55;96002.91;;;24.90
40624;BMP280;26325;48.594;11.650;2023-05-15T11:14:26;95989.09;;;24.96
40624;BMP280;26325;48.594;11.650;2023-05-15T11:16:57;96006.44;;;24.10
40624;BMP280;26325;48.594;11.650;2023-05-15T11:27:20;96037.06;;;21.27
40624;BMP280;26325;48.594;11.650;2023-05-15T11:30:15;96036.38;;;20.74
40624;BMP280;26325;48.594;11.650;2023-05-15T11:33:00;96024.47;;;20.15
40624;BMP280;26325;48.594;11.650;2023-05-15T11:35:42;96015.91;;;19.56
40624;BMP280;26325;48.594;11.650;2023-05-15T11:38:13;96022.16;;;19.30
40624;BMP280;26325;48.594;11.650;2023-05-15T11:40:58;96024.53;;;19.73
40624;BMP280;26325;48.594;11.650;2023-05-15T11:43:36;96021.25;;;21.36
40624;BMP280;26325;48.594;11.650;2023-05-15T11:48:44;96017.69;;;23.57
40624;BMP280;26325;48.594;11.650;2023-05-15T11:51:25;96013.28;;;24.26
40624;BMP280;26325;48.594;11.650;2023-05-15T11:53:54;96016.91;;;24.48
40624;BMP280;26325;48.594;11.650;2023-05-15T11:56:23;96021.75;;;24.46
40624;BMP280;26325;48.594;11.650;2023-05-15T11:58:59;96017.50;;;24.69
40624;BMP280;26325;48.594;11.650;2023-05-15T12:01:29;96014.88;;;24.57
40624;BMP280;26325;48.594;11.650;2023-05-15T12:04:04;96021.19;;;24.26
40624;BMP280;26325;48.594;11.650;2023-05-15T12:06:40;96013.66;;;23.86
40624;BMP280;26325;48.594;11.650;2023-05-15T12:09:17;96015.25;;;23.64
40624;BMP280;26325;48.594;11.650;2023-05-15T12:11:54;96018.78;;;23.56
40624;BMP280;26325;48.594;11.650;2023-05-15T12:14:30;96011.78;;;23.87
40624;BMP280;26325;48.594;11.650;2023-05-15T12:17:02;95997.00;;;24.51
40624;BMP280;26325;48.594;11.650;2023-05-15T12:19:33;95993.53;;;25.07
40624;BMP280;26325;48.594;11.650;2023-05-15T12:21:59;95980.25;;;25.71
40624;BMP280;26325;48.594;11.650;2023-05-15T12:24:28;95982.84;;;26.64
40624;BMP280;26325;48.594;11.650;2023-05-15T12:26:54;95976.75;;;27.58
40624;BMP280;26325;48.594;11.650;2023-05-15T12:29:20;95969.41;;;28.34
40624;BMP280;26325;48.594;11.650;2023-05-15T12:31:45;95968.47;;;28.95
40624;BMP280;26325;48.594;11.650;2023-05-15T12:34:14;95962.56;;;29.18
40624;BMP280;26325;48.594;11.650;2023-05-15T12:36:40;95949.41;;;30.12
40624;BMP280;26325;48.594;11.650;2023-05-15T12:39:09;95951.06;;;30.74
40624;BMP280;26325;48.594;11.650;2023-05-15T12:41:39;95960.53;;;31.71
40624;BMP280;26325;48.594;11.650;2023-05-15T12:44:05;95949.53;;;31.41
40624;BMP280;26325;48.594;11.650;2023-05-15T12:46:31;95960.16;;;31.69
40624;BMP280;26325;48.594;11.650;2023-05-15T12:49:00;95956.28;;;31.83
40624;BMP280;26325;48.594;11.650;2023-05-15T12:51:26;95954.50;;;32.47
40624;BMP280;26325;48.594;11.650;2023-05-15T12:53:56;95960.53;;;32.61
40624;BMP280;26325;48.594;11.650;2023-05-15T12:56:22;95955.22;;;32.58
40624;BMP280;26325;48.594;11.650;2023-05-15T12:58:50;95958.34;;;32.36
40624;BMP280;26325;48.594;11.650;2023-05-15T13:01:18;95939.31;;;32.94
40624;BMP280;26325;48.594;11.650;2023-05-15T13:03:45;95951.66;;;32.08
40624;BMP280;26325;48.594;11.650;2023-05-15T13:06:15;95960.13;;;31.76
40624;BMP280;26325;48.594;11.650;2023-05-15T13:08:41;95953.22;;;31.98
40624;BMP280;26325;48.594;11.650;2023-05-15T13:11:13;95961.94;;;32.16
40624;BMP280;26325;48.594;11.650;2023-05-15T13:13:47;95947.69;;;31.04
40624;BMP280;26325;48.594;11.650;2023-05-15T13:16:23;95954.34;;;30.06
40624;BMP280;26325;48.594;11.650;2023-05-15T13:18:49;95964.00;;;29.06
40624;BMP280;26325;48.594;11.650;2023-05-15T13:21:16;95974.91;;;27.87
40624;BMP280;26325;48.594;11.650;2023-05-15T13:23:41;95969.47;;;26.79
40624;BMP280;26325;48.594;11.650;2023-05-15T13:26:07;95969.94;;;26.40
40624;BMP280;26325;48.594;11.650;2023-05-15T13:28:33;95961.28;;;26.87
40624;BMP280;26325;48.594;11.650;2023-05-15T13:31:01;95959.91;;;27.44
40624;BMP280;26325;48.594;11.650;2023-05-15T13:33:27;95952.59;;;28.24
40624;BMP280;26325;48.594;11.650;2023-05-15T13:35:55;95961.41;;;26.50
40624;BMP280;26325;48.594;11.650;2023-05-15T13:38:22;95955.81;;;27.50
40624;BMP280;26325;48.594;11.650;2023-05-15T13:40:47;95962.06;;;27.64
40624;BMP280;26325;48.594;11.650;2023-05-15T13:43:15;95962.72;;;27.29
40624;BMP280;26325;48.594;11.650;2023-05-15T13:45:40;95964.19;;;26.79
40624;BMP280;26325;48.594;11.650;2023-05-15T13:48:08;95968.59;;;27.15
40624;BMP280;26325;48.594;11.650;2023-05-15T13:50:34;95968.88;;;27.90
40624;BMP280;26325;48.594;11.650;2023-05-15T13:53:02;95970.78;;;27.64
40624;BMP280;26325;48.594;11.650;2023-05-15T13:55:30;95969.28;;;27.13
40624;BMP280;26325;48.594;11.650;2023-05-15T13:57:59;95968.16;;;27.39
40624;BMP280;26325;48.594;11.650;2023-05-15T14:00:27;95969.53;;;28.48
40624;BMP280;26325;48.594;11.650;2023-05-15T14:02:53;95975.72;;;28.59
40624;BMP280;26325;48.594;11.650;2023-05-15T14:05:18;95972.41;;;27.69
40624;BMP280;26325;48.594;11.650;2023-05-15T14:07:44;95972.34;;;27.14
40624;BMP280;26325;48.594;11.650;2023-05-15T14:10:10;95974.53;;;26.25
40624;BMP280;26325;48.594;11.650;2023-05-15T14:12:36;95981.66;;;25.84
40624;BMP280;26325;48.594;11.650;2023-05-15T14:15:05;95989.34;;;25.89
40624;BMP280;26325;48.594;11.650;2023-05-15T14:17:31;95979.69;;;25.44
40624;BMP280;26325;48.594;11.650;2023-05-15T14:19:56;95989.09;;;23.70
40624;BMP280;26325;48.594;11.650;2023-05-15T14:22:24;95984.81;;;23.28
40624;BMP280;26325;48.594;11.650;2023-05-15T14:24:52;95987.47;;;22.49
40624;BMP280;26325;48.594;11.650;2023-05-15T14:27:18;95997.38;;;21.69
40624;BMP280;26325;48.594;11.650;2023-05-15T14:29:44;96009.38;;;21.01
40624;BMP280;26325;48.594;11.650;2023-05-15T14:32:10;96012.94;;;20.69
40624;BMP280;26325;48.594;11.650;2023-05-15T14:34:37;96006.78;;;20.65
40624;BMP280;26325;48.594;11.650;2023-05-15T14:37:03;96011.81;;;20.33
40624;BMP280;26325;48.594;11.650;2023-05-15T14:39:29;96028.50;;;20.21
40624;BMP280;26325;48.594;11.650;2023-05-15T14:41:55;96027.84;;;20.23
40624;BMP280;26325;48.594;11.650;2023-05-15T14:44:25;96038.38;;;20.07
40624;BMP280;26325;48.594;11.650;2023-05-15T14:47:07;96042.72;;;20.03
40624;BMP280;26325;48.594;11.650;2023-05-15T14:49:34;96041.94;;;19.86